Etusivu
METAR-TAF:

METAR-TAF

Lentoasemat :

Rabat, Marokko

Leveyspiiri: 34-03N, Pituuspiiri: 006-46W, korkeus merenpinnasta: 84 m

Tämänhetkinen sää

Tämä raportti tehtiin 23 minuuttia sitten, kello 04.30 UTC
Tuuli 8 kn etelästä
Lämpötila 11°C
Kosteus 100%
Ilmanpaine 1018 hPa
Näkyvyys: 6000 m
Muutamia pilviä 1600 ft:n korkeudessa

METAR: GMME 130430Z 17008KT 6000 FEW016 11/11 Q1018 NOSIG

Aika: 04:53 (04:53 UTC)

Sääennuste

Tämä raportti tehtiin 5 tuntia ja 53 minuuttia sitten, kello 23.00 UTC
Ennuste voimassa 13. päivästä klo 00 UTC - 14. päivään klo 06 UTC
Tuuli 5 kn etelästä/lounaasta
Näkyvyys: 6000 m
Hajanaisia pilviä 1500 ft:n korkeudessa
Ajoittain
13. päivästä klo 00 UTC - 13. päivään klo 08 UTC
Tuuli 2 kn eri suunnista

TAF: GMME 122300Z 1300/1406 20005KT 6000 SCT015 TEMPO 1300/1308 VRB02KT

Säähavainnot ja -ennusteet yli 4000 lentoasemalta (METAR- ja TAF-raportit).

Käytössä olevat sääasemat on merkitty karttaan keltaisilla ja punaisilla pisteillä.

Aseta hiiri pisteen päälle nähdäksesi sääaseman nimen.

Klikkaa sitten nähdäksesi säähavainnot ja -ennusteet.

Kartan vaihtaminen: klikkaa mustalla rastilla varustettuja vihreitä pisteitä, niin voit zoomata sisään; viivalla varustettua vihreää pistettä, niin voit zoomata ulos tai vihreitä nuolia, niin pääset viereisille kartoille.


METAR-TAF: